Orbital elements of COSMOS 2251 DEB
| Launched | 15 June 1993 |
| Flight ended | – |
| Launch site | Plesetsk Missile and Space Complex, Russia |
| Owner | Commonwealth of Independent States (former USSR) |
| NORAD ID | 34433 |
| Date fetched |
Epoch osculation |
Inc. [°] |
Ecc. | RA asc node [hr] |
Arg Peri. [°] |
Mean anom [°] |
Mean motion [rev/day] |
Abs. mag |
| Date fetched |
Epoch osculation |
Inc. [°] |
Ecc. | RA asc node [hr] |
Arg Peri. [°] |
Mean anom [°] |
Mean motion [rev/day] |
Abs. mag |
| 2026 May 07 17:58 | 2026 May 05 07:38:40 | 74.0103 | 0.01511 | 17.3616 | 5.7603 | 354.5228 | 14.13672 | – |
| 2026 May 06 17:57 | 2026 May 05 07:38:40 | 74.0103 | 0.01511 | 17.3616 | 5.7603 | 354.5228 | 14.13672 | – |
| 2026 May 05 17:57 | 2026 May 05 07:38:40 | 74.0103 | 0.01511 | 17.3616 | 5.7603 | 354.5228 | 14.13672 | – |
| 2026 May 04 17:57 | 2026 Apr 30 12:09:20 | 74.0088 | 0.01510 | 17.9306 | 15.5847 | 354.5228 | 14.13672 | – |
| 2026 May 03 17:57 | 2026 Apr 30 12:09:20 | 74.0088 | 0.01510 | 17.9306 | 15.5847 | 354.5228 | 14.13672 | – |
| 2026 May 02 17:57 | 2026 Apr 30 12:09:20 | 74.0088 | 0.01510 | 17.9306 | 15.5847 | 354.5228 | 14.13672 | – |
| 2026 May 01 17:56 | 2026 Apr 30 12:09:20 | 74.0088 | 0.01510 | 17.9306 | 15.5847 | 354.5228 | 14.13672 | – |
| 2026 Apr 30 17:56 | 2026 Apr 30 12:09:20 | 74.0088 | 0.01510 | 17.9306 | 15.5847 | 354.5228 | 14.13672 | – |
| 2026 Apr 29 17:57 | 2026 Apr 24 11:47:31 | 74.0077 | 0.01510 | 18.6418 | 27.7602 | 354.5228 | 14.13672 | – |
| 2026 Apr 28 17:56 | 2026 Apr 24 11:47:31 | 74.0077 | 0.01510 | 18.6418 | 27.7602 | 354.5228 | 14.13672 | – |
| 2026 Apr 27 17:58 | 2026 Apr 24 11:47:31 | 74.0077 | 0.01510 | 18.6418 | 27.7602 | 354.5228 | 14.13672 | – |
| 2026 Apr 26 17:58 | 2026 Apr 24 11:47:31 | 74.0077 | 0.01510 | 18.6418 | 27.7602 | 354.5228 | 14.13672 | – |
| 2026 Apr 25 17:58 | 2026 Apr 24 11:47:31 | 74.0077 | 0.01510 | 18.6418 | 27.7602 | 354.5228 | 14.13672 | – |
| 2026 Apr 24 17:59 | 2026 Apr 24 11:47:31 | 74.0077 | 0.01510 | 18.6418 | 27.7602 | 354.5228 | 14.13672 | – |
| 2026 Apr 23 17:57 | 2026 Apr 19 06:06:31 | 74.0070 | 0.01510 | 19.2611 | 38.2687 | 354.5228 | 14.13672 | – |
| 2026 Apr 22 17:57 | 2026 Apr 19 06:06:31 | 74.0070 | 0.01510 | 19.2611 | 38.2687 | 354.5228 | 14.13672 | – |
| 2026 Apr 21 17:57 | 2026 Apr 19 06:06:31 | 74.0070 | 0.01510 | 19.2611 | 38.2687 | 354.5228 | 14.13672 | – |
| 2026 Apr 20 17:57 | 2026 Apr 19 06:06:31 | 74.0070 | 0.01510 | 19.2611 | 38.2687 | 354.5228 | 14.13672 | – |
| 2026 Apr 19 17:58 | 2026 Apr 19 06:06:31 | 74.0070 | 0.01510 | 19.2611 | 38.2687 | 354.5228 | 14.13672 | – |
| 2026 Apr 18 17:56 | 2026 Apr 12 22:56:47 | 74.0067 | 0.01509 | 20.0058 | 50.7891 | 354.5228 | 14.13672 | – |
| 2026 Apr 16 17:57 | 2026 Apr 12 22:56:47 | 74.0067 | 0.01509 | 20.0058 | 50.7891 | 354.5228 | 14.13672 | – |
| 2026 Apr 14 17:57 | 2026 Apr 12 22:56:47 | 74.0067 | 0.01509 | 20.0058 | 50.7891 | 354.5228 | 14.13672 | – |
| 2026 Apr 13 17:57 | 2026 Apr 12 22:56:47 | 74.0067 | 0.01509 | 20.0058 | 50.7891 | 354.5228 | 14.13672 | – |
| 2026 Apr 12 17:57 | 2026 Apr 08 13:38:28 | 74.0081 | 0.01508 | 20.5247 | 59.5007 | 354.5228 | 14.13672 | – |
| 2026 Apr 11 17:57 | 2026 Apr 08 13:38:28 | 74.0081 | 0.01508 | 20.5247 | 59.5007 | 354.5228 | 14.13672 | – |
| 2026 Apr 10 17:58 | 2026 Apr 08 13:38:28 | 74.0081 | 0.01508 | 20.5247 | 59.5007 | 354.5228 | 14.13672 | – |